sensor_id;sensor_type;location;lat;lon;timestamp;P1;durP1;ratioP1;P2;durP2;ratioP2
51560;SDS011;37654;51.262;17.058;2023-03-01T00:00:34;53.42;;;29.73;;
51560;SDS011;37654;51.262;17.058;2023-03-01T00:02:59;48.80;;;28.15;;
51560;SDS011;37654;51.262;17.058;2023-03-01T00:05:24;52.30;;;27.90;;
51560;SDS011;37654;51.262;17.058;2023-03-01T00:07:52;56.88;;;30.50;;
51560;SDS011;37654;51.262;17.058;2023-03-01T00:10:17;59.08;;;33.33;;
51560;SDS011;37654;51.262;17.058;2023-03-01T00:12:43;53.78;;;32.28;;
51560;SDS011;37654;51.262;17.058;2023-03-01T00:15:08;56.33;;;32.88;;
51560;SDS011;37654;51.262;17.058;2023-03-01T00:17:33;61.97;;;31.67;;
51560;SDS011;37654;51.262;17.058;2023-03-01T00:19:59;57.65;;;31.90;;
51560;SDS011;37654;51.262;17.058;2023-03-01T00:22:26;60.13;;;33.45;;
51560;SDS011;37654;51.262;17.058;2023-03-01T00:24:51;53.50;;;30.40;;
51560;SDS011;37654;51.262;17.058;2023-03-01T00:27:16;53.13;;;29.40;;
51560;SDS011;37654;51.262;17.058;2023-03-01T00:29:41;57.67;;;32.50;;
51560;SDS011;37654;51.262;17.058;2023-03-01T00:32:07;57.45;;;33.30;;
51560;SDS011;37654;51.262;17.058;2023-03-01T00:34:32;54.80;;;32.90;;
51560;SDS011;37654;51.262;17.058;2023-03-01T00:36:57;54.88;;;33.88;;
51560;SDS011;37654;51.262;17.058;2023-03-01T00:39:29;56.47;;;33.53;;
51560;SDS011;37654;51.262;17.058;2023-03-01T00:41:55;66.97;;;33.17;;
51560;SDS011;37654;51.262;17.058;2023-03-01T00:44:21;58.22;;;33.75;;
51560;SDS011;37654;51.262;17.058;2023-03-01T00:46:46;60.00;;;32.22;;
51560;SDS011;37654;51.262;17.058;2023-03-01T00:49:11;49.95;;;29.52;;
51560;SDS011;37654;51.262;17.058;2023-03-01T00:51:37;45.70;;;27.83;;
51560;SDS011;37654;51.262;17.058;2023-03-01T00:54:04;52.88;;;30.33;;
51560;SDS011;37654;51.262;17.058;2023-03-01T00:56:29;59.78;;;33.75;;
51560;SDS011;37654;51.262;17.058;2023-03-01T00:58:55;62.90;;;34.85;;
51560;SDS011;37654;51.262;17.058;2023-03-01T01:01:22;61.78;;;33.65;;
51560;SDS011;37654;51.262;17.058;2023-03-01T01:03:55;51.70;;;31.48;;
51560;SDS011;37654;51.262;17.058;2023-03-01T01:06:22;46.40;;;26.40;;
51560;SDS011;37654;51.262;17.058;2023-03-01T01:08:48;41.75;;;24.30;;
51560;SDS011;37654;51.262;17.058;2023-03-01T01:11:13;42.30;;;22.85;;
51560;SDS011;37654;51.262;17.058;2023-03-01T01:13:39;43.20;;;23.95;;
51560;SDS011;37654;51.262;17.058;2023-03-01T01:16:04;46.75;;;25.73;;
51560;SDS011;37654;51.262;17.058;2023-03-01T01:18:30;47.17;;;26.17;;
51560;SDS011;37654;51.262;17.058;2023-03-01T01:20:55;53.58;;;29.40;;
51560;SDS011;37654;51.262;17.058;2023-03-01T01:23:20;53.22;;;29.55;;
51560;SDS011;37654;51.262;17.058;2023-03-01T01:25:46;45.70;;;26.02;;
51560;SDS011;37654;51.262;17.058;2023-03-01T01:28:11;43.33;;;24.35;;
51560;SDS011;37654;51.262;17.058;2023-03-01T01:30:36;41.67;;;24.38;;
51560;SDS011;37654;51.262;17.058;2023-03-01T01:33:01;42.05;;;23.40;;
51560;SDS011;37654;51.262;17.058;2023-03-01T01:35:27;40.13;;;23.30;;
51560;SDS011;37654;51.262;17.058;2023-03-01T01:37:52;45.30;;;23.95;;
51560;SDS011;37654;51.262;17.058;2023-03-01T01:40:17;42.15;;;23.90;;
51560;SDS011;37654;51.262;17.058;2023-03-01T01:42:43;45.50;;;24.65;;
51560;SDS011;37654;51.262;17.058;2023-03-01T01:47:48;43.97;;;25.15;;
51560;SDS011;37654;51.262;17.058;2023-03-01T01:50:14;40.95;;;23.85;;
51560;SDS011;37654;51.262;17.058;2023-03-01T01:52:41;42.85;;;24.17;;
51560;SDS011;37654;51.262;17.058;2023-03-01T01:55:08;46.85;;;25.98;;
51560;SDS011;37654;51.262;17.058;2023-03-01T01:57:41;54.72;;;27.55;;
51560;SDS011;37654;51.262;17.058;2023-03-01T02:00:16;47.08;;;26.00;;
51560;SDS011;37654;51.262;17.058;2023-03-01T02:02:41;46.92;;;24.52;;
51560;SDS011;37654;51.262;17.058;2023-03-01T02:05:12;45.40;;;25.63;;
51560;SDS011;37654;51.262;17.058;2023-03-01T02:07:39;43.83;;;24.80;;
51560;SDS011;37654;51.262;17.058;2023-03-01T02:10:05;43.83;;;24.00;;
51560;SDS011;37654;51.262;17.058;2023-03-01T02:12:30;43.50;;;23.75;;
51560;SDS011;37654;51.262;17.058;2023-03-01T02:14:56;44.88;;;25.13;;
51560;SDS011;37654;51.262;17.058;2023-03-01T02:17:21;44.95;;;24.17;;
51560;SDS011;37654;51.262;17.058;2023-03-01T02:22:17;40.75;;;23.98;;
51560;SDS011;37654;51.262;17.058;2023-03-01T02:27:18;41.75;;;22.88;;
51560;SDS011;37654;51.262;17.058;2023-03-01T02:29:46;40.35;;;23.35;;
51560;SDS011;37654;51.262;17.058;2023-03-01T02:32:12;44.13;;;23.50;;
51560;SDS011;37654;51.262;17.058;2023-03-01T02:34:38;37.83;;;22.25;;
51560;SDS011;37654;51.262;17.058;2023-03-01T02:37:05;36.95;;;21.52;;
51560;SDS011;37654;51.262;17.058;2023-03-01T02:39:33;39.08;;;21.02;;
51560;SDS011;37654;51.262;17.058;2023-03-01T02:41:59;41.42;;;22.48;;
51560;SDS011;37654;51.262;17.058;2023-03-01T02:44:25;37.15;;;19.20;;
51560;SDS011;37654;51.262;17.058;2023-03-01T02:46:51;41.58;;;21.52;;
51560;SDS011;37654;51.262;17.058;2023-03-01T02:56:56;41.63;;;21.85;;
51560;SDS011;37654;51.262;17.058;2023-03-01T02:59:22;41.33;;;21.67;;
51560;SDS011;37654;51.262;17.058;2023-03-01T03:01:48;38.15;;;20.95;;
51560;SDS011;37654;51.262;17.058;2023-03-01T03:04:15;37.92;;;21.70;;
51560;SDS011;37654;51.262;17.058;2023-03-01T03:06:46;36.92;;;21.40;;
51560;SDS011;37654;51.262;17.058;2023-03-01T03:09:12;38.65;;;21.83;;
51560;SDS011;37654;51.262;17.058;2023-03-01T03:11:38;36.53;;;20.88;;
51560;SDS011;37654;51.262;17.058;2023-03-01T03:14:05;33.13;;;20.58;;
51560;SDS011;37654;51.262;17.058;2023-03-01T03:16:37;39.35;;;21.75;;
51560;SDS011;37654;51.262;17.058;2023-03-01T03:19:03;35.97;;;20.55;;
51560;SDS011;37654;51.262;17.058;2023-03-01T03:21:30;36.40;;;20.63;;
51560;SDS011;37654;51.262;17.058;2023-03-01T03:23:56;36.90;;;21.60;;
51560;SDS011;37654;51.262;17.058;2023-03-01T03:26:21;43.15;;;21.95;;
51560;SDS011;37654;51.262;17.058;2023-03-01T03:28:46;41.05;;;21.63;;
51560;SDS011;37654;51.262;17.058;2023-03-01T03:31:12;38.42;;;21.67;;
51560;SDS011;37654;51.262;17.058;2023-03-01T03:33:37;34.72;;;19.70;;
51560;SDS011;37654;51.262;17.058;2023-03-01T03:36:02;39.30;;;20.45;;
51560;SDS011;37654;51.262;17.058;2023-03-01T03:38:28;40.17;;;23.55;;
51560;SDS011;37654;51.262;17.058;2023-03-01T03:41:00;40.03;;;22.52;;
51560;SDS011;37654;51.262;17.058;2023-03-01T03:43:27;41.28;;;23.67;;
51560;SDS011;37654;51.262;17.058;2023-03-01T03:45:52;36.70;;;20.33;;
51560;SDS011;37654;51.262;17.058;2023-03-01T03:48:19;38.78;;;22.55;;
51560;SDS011;37654;51.262;17.058;2023-03-01T03:50:54;35.33;;;20.90;;
51560;SDS011;37654;51.262;17.058;2023-03-01T03:53:20;33.83;;;20.38;;
51560;SDS011;37654;51.262;17.058;2023-03-01T03:55:46;37.13;;;21.70;;
51560;SDS011;37654;51.262;17.058;2023-03-01T03:58:14;39.60;;;21.15;;
51560;SDS011;37654;51.262;17.058;2023-03-01T04:00:40;37.15;;;20.15;;
51560;SDS011;37654;51.262;17.058;2023-03-01T04:03:06;39.05;;;21.35;;
51560;SDS011;37654;51.262;17.058;2023-03-01T04:05:32;38.00;;;21.48;;
51560;SDS011;37654;51.262;17.058;2023-03-01T04:07:58;37.55;;;21.42;;
51560;SDS011;37654;51.262;17.058;2023-03-01T04:10:26;37.08;;;20.83;;
51560;SDS011;37654;51.262;17.058;2023-03-01T04:12:52;36.90;;;21.02;;
51560;SDS011;37654;51.262;17.058;2023-03-01T04:15:18;38.85;;;21.15;;
51560;SDS011;37654;51.262;17.058;2023-03-01T04:17:44;37.22;;;22.27;;
51560;SDS011;37654;51.262;17.058;2023-03-01T04:20:10;34.97;;;20.77;;
51560;SDS011;37654;51.262;17.058;2023-03-01T04:22:36;35.13;;;20.85;;
51560;SDS011;37654;51.262;17.058;2023-03-01T04:25:01;36.92;;;20.73;;
51560;SDS011;37654;51.262;17.058;2023-03-01T04:27:27;41.95;;;22.50;;
51560;SDS011;37654;51.262;17.058;2023-03-01T04:29:52;39.60;;;21.17;;
51560;SDS011;37654;51.262;17.058;2023-03-01T04:32:17;41.53;;;23.63;;
51560;SDS011;37654;51.262;17.058;2023-03-01T04:34:43;43.72;;;24.15;;
51560;SDS011;37654;51.262;17.058;2023-03-01T04:37:08;43.70;;;23.88;;
51560;SDS011;37654;51.262;17.058;2023-03-01T04:39:34;43.47;;;24.15;;
51560;SDS011;37654;51.262;17.058;2023-03-01T04:42:11;40.83;;;23.48;;
51560;SDS011;37654;51.262;17.058;2023-03-01T04:44:36;43.67;;;24.55;;
51560;SDS011;37654;51.262;17.058;2023-03-01T04:47:01;50.88;;;25.15;;
51560;SDS011;37654;51.262;17.058;2023-03-01T04:49:26;48.95;;;24.73;;
51560;SDS011;37654;51.262;17.058;2023-03-01T04:51:52;46.15;;;24.08;;
51560;SDS011;37654;51.262;17.058;2023-03-01T04:54:17;44.50;;;26.00;;
51560;SDS011;37654;51.262;17.058;2023-03-01T04:56:42;43.63;;;24.35;;
51560;SDS011;37654;51.262;17.058;2023-03-01T04:59:07;47.25;;;27.65;;
51560;SDS011;37654;51.262;17.058;2023-03-01T05:01:34;49.95;;;26.73;;
51560;SDS011;37654;51.262;17.058;2023-03-01T05:04:00;47.88;;;27.52;;
51560;SDS011;37654;51.262;17.058;2023-03-01T05:06:28;48.08;;;27.98;;
51560;SDS011;37654;51.262;17.058;2023-03-01T05:08:53;46.70;;;26.30;;
51560;SDS011;37654;51.262;17.058;2023-03-01T05:11:18;46.42;;;28.13;;
51560;SDS011;37654;51.262;17.058;2023-03-01T05:13:44;57.95;;;27.88;;
51560;SDS011;37654;51.262;17.058;2023-03-01T05:16:09;50.83;;;28.05;;
51560;SDS011;37654;51.262;17.058;2023-03-01T05:18:37;50.72;;;27.27;;
51560;SDS011;37654;51.262;17.058;2023-03-01T05:21:06;56.05;;;29.15;;
51560;SDS011;37654;51.262;17.058;2023-03-01T05:23:32;49.65;;;27.90;;
51560;SDS011;37654;51.262;17.058;2023-03-01T05:25:58;51.95;;;28.80;;
51560;SDS011;37654;51.262;17.058;2023-03-01T05:28:24;53.15;;;29.52;;
51560;SDS011;37654;51.262;17.058;2023-03-01T05:30:50;50.78;;;28.42;;
51560;SDS011;37654;51.262;17.058;2023-03-01T05:33:16;56.53;;;29.67;;
51560;SDS011;37654;51.262;17.058;2023-03-01T05:35:42;49.55;;;28.10;;
51560;SDS011;37654;51.262;17.058;2023-03-01T05:38:08;54.15;;;29.52;;
51560;SDS011;37654;51.262;17.058;2023-03-01T05:40:34;48.50;;;27.48;;
51560;SDS011;37654;51.262;17.058;2023-03-01T05:42:59;49.60;;;28.00;;
51560;SDS011;37654;51.262;17.058;2023-03-01T05:45:25;53.60;;;28.85;;
51560;SDS011;37654;51.262;17.058;2023-03-01T05:47:51;56.00;;;27.52;;
51560;SDS011;37654;51.262;17.058;2023-03-01T05:50:17;47.20;;;27.02;;
51560;SDS011;37654;51.262;17.058;2023-03-01T05:52:50;49.00;;;27.50;;
51560;SDS011;37654;51.262;17.058;2023-03-01T05:55:16;54.40;;;27.83;;
51560;SDS011;37654;51.262;17.058;2023-03-01T05:57:41;49.15;;;26.40;;
51560;SDS011;37654;51.262;17.058;2023-03-01T06:00:07;51.60;;;27.83;;
51560;SDS011;37654;51.262;17.058;2023-03-01T06:02:33;43.35;;;25.95;;
51560;SDS011;37654;51.262;17.058;2023-03-01T06:04:58;45.45;;;25.30;;
51560;SDS011;37654;51.262;17.058;2023-03-01T06:07:23;46.42;;;26.08;;
51560;SDS011;37654;51.262;17.058;2023-03-01T06:09:49;42.60;;;25.20;;
51560;SDS011;37654;51.262;17.058;2023-03-01T06:12:14;42.47;;;25.08;;
51560;SDS011;37654;51.262;17.058;2023-03-01T06:14:39;46.42;;;24.65;;
51560;SDS011;37654;51.262;17.058;2023-03-01T06:17:04;42.63;;;23.58;;
51560;SDS011;37654;51.262;17.058;2023-03-01T06:19:30;44.20;;;24.73;;
51560;SDS011;37654;51.262;17.058;2023-03-01T06:21:55;40.28;;;21.75;;
51560;SDS011;37654;51.262;17.058;2023-03-01T06:24:20;39.35;;;20.95;;
51560;SDS011;37654;51.262;17.058;2023-03-01T06:26:45;40.42;;;22.33;;
51560;SDS011;37654;51.262;17.058;2023-03-01T06:29:11;45.53;;;22.15;;
51560;SDS011;37654;51.262;17.058;2023-03-01T06:31:36;45.15;;;23.65;;
51560;SDS011;37654;51.262;17.058;2023-03-01T06:34:01;40.92;;;22.92;;
51560;SDS011;37654;51.262;17.058;2023-03-01T06:36:27;41.45;;;24.08;;
51560;SDS011;37654;51.262;17.058;2023-03-01T06:38:52;39.55;;;23.65;;
51560;SDS011;37654;51.262;17.058;2023-03-01T06:41:17;34.57;;;22.70;;
51560;SDS011;37654;51.262;17.058;2023-03-01T06:43:43;36.13;;;22.50;;
51560;SDS011;37654;51.262;17.058;2023-03-01T06:46:08;31.13;;;20.90;;
51560;SDS011;37654;51.262;17.058;2023-03-01T06:48:33;31.57;;;20.80;;
51560;SDS011;37654;51.262;17.058;2023-03-01T06:50:59;32.70;;;22.67;;
51560;SDS011;37654;51.262;17.058;2023-03-01T06:53:26;34.08;;;22.70;;
51560;SDS011;37654;51.262;17.058;2023-03-01T06:55:56;33.45;;;23.02;;
51560;SDS011;37654;51.262;17.058;2023-03-01T06:58:22;38.03;;;24.60;;
51560;SDS011;37654;51.262;17.058;2023-03-01T07:00:47;36.90;;;23.63;;
51560;SDS011;37654;51.262;17.058;2023-03-01T07:03:12;37.33;;;25.87;;
51560;SDS011;37654;51.262;17.058;2023-03-01T07:05:38;38.53;;;26.23;;
51560;SDS011;37654;51.262;17.058;2023-03-01T07:08:03;39.83;;;27.17;;
51560;SDS011;37654;51.262;17.058;2023-03-01T07:10:28;37.13;;;27.77;;
51560;SDS011;37654;51.262;17.058;2023-03-01T07:12:54;37.73;;;26.73;;
51560;SDS011;37654;51.262;17.058;2023-03-01T07:15:19;33.60;;;25.52;;
51560;SDS011;37654;51.262;17.058;2023-03-01T07:17:44;34.60;;;24.87;;
51560;SDS011;37654;51.262;17.058;2023-03-01T07:20:12;35.45;;;23.45;;
51560;SDS011;37654;51.262;17.058;2023-03-01T07:22:39;29.83;;;21.57;;
51560;SDS011;37654;51.262;17.058;2023-03-01T07:25:04;31.80;;;21.17;;
51560;SDS011;37654;51.262;17.058;2023-03-01T07:27:30;31.63;;;22.83;;
51560;SDS011;37654;51.262;17.058;2023-03-01T07:29:55;34.37;;;25.57;;
51560;SDS011;37654;51.262;17.058;2023-03-01T07:32:20;32.20;;;22.23;;
51560;SDS011;37654;51.262;17.058;2023-03-01T07:34:45;35.80;;;25.87;;
51560;SDS011;37654;51.262;17.058;2023-03-01T07:37:11;38.13;;;25.67;;
51560;SDS011;37654;51.262;17.058;2023-03-01T07:39:36;31.57;;;24.30;;
51560;SDS011;37654;51.262;17.058;2023-03-01T07:42:02;27.17;;;21.08;;
51560;SDS011;37654;51.262;17.058;2023-03-01T07:44:27;28.77;;;21.47;;
51560;SDS011;37654;51.262;17.058;2023-03-01T07:46:53;30.55;;;21.75;;
51560;SDS011;37654;51.262;17.058;2023-03-01T07:49:21;27.45;;;20.70;;
51560;SDS011;37654;51.262;17.058;2023-03-01T07:51:46;28.25;;;20.38;;
51560;SDS011;37654;51.262;17.058;2023-03-01T07:54:11;30.37;;;20.77;;
51560;SDS011;37654;51.262;17.058;2023-03-01T07:56:37;28.80;;;22.23;;
51560;SDS011;37654;51.262;17.058;2023-03-01T07:59:02;27.83;;;19.67;;
51560;SDS011;37654;51.262;17.058;2023-03-01T08:01:27;27.63;;;20.10;;
51560;SDS011;37654;51.262;17.058;2023-03-01T08:03:52;24.93;;;17.37;;
51560;SDS011;37654;51.262;17.058;2023-03-01T08:06:18;27.57;;;18.47;;
51560;SDS011;37654;51.262;17.058;2023-03-01T08:08:43;23.48;;;18.70;;
51560;SDS011;37654;51.262;17.058;2023-03-01T08:11:10;22.40;;;18.83;;
51560;SDS011;37654;51.262;17.058;2023-03-01T08:13:36;23.25;;;18.08;;
51560;SDS011;37654;51.262;17.058;2023-03-01T08:16:04;24.67;;;17.87;;
51560;SDS011;37654;51.262;17.058;2023-03-01T08:18:30;26.02;;;17.60;;
51560;SDS011;37654;51.262;17.058;2023-03-01T08:20:56;20.87;;;15.23;;
51560;SDS011;37654;51.262;17.058;2023-03-01T08:23:21;23.70;;;16.17;;
51560;SDS011;37654;51.262;17.058;2023-03-01T08:25:46;26.37;;;19.03;;
51560;SDS011;37654;51.262;17.058;2023-03-01T08:28:11;16.53;;;12.73;;
51560;SDS011;37654;51.262;17.058;2023-03-01T08:30:37;16.07;;;11.87;;
51560;SDS011;37654;51.262;17.058;2023-03-01T08:33:02;16.70;;;12.50;;
51560;SDS011;37654;51.262;17.058;2023-03-01T08:35:27;19.17;;;13.57;;
51560;SDS011;37654;51.262;17.058;2023-03-01T08:37:53;22.60;;;15.83;;
51560;SDS011;37654;51.262;17.058;2023-03-01T08:40:18;20.33;;;14.90;;
51560;SDS011;37654;51.262;17.058;2023-03-01T08:42:43;19.63;;;14.50;;
51560;SDS011;37654;51.262;17.058;2023-03-01T08:45:09;19.40;;;13.73;;
51560;SDS011;37654;51.262;17.058;2023-03-01T08:47:35;17.15;;;14.38;;
51560;SDS011;37654;51.262;17.058;2023-03-01T08:50:00;19.35;;;15.45;;
51560;SDS011;37654;51.262;17.058;2023-03-01T08:52:26;18.43;;;14.73;;
51560;SDS011;37654;51.262;17.058;2023-03-01T08:54:51;22.10;;;15.25;;
51560;SDS011;37654;51.262;17.058;2023-03-01T08:57:17;15.60;;;12.75;;
51560;SDS011;37654;51.262;17.058;2023-03-01T08:59:42;18.90;;;13.83;;
51560;SDS011;37654;51.262;17.058;2023-03-01T09:02:15;16.43;;;13.40;;
51560;SDS011;37654;51.262;17.058;2023-03-01T09:04:40;16.40;;;12.68;;
51560;SDS011;37654;51.262;17.058;2023-03-01T09:07:06;17.20;;;13.20;;
51560;SDS011;37654;51.262;17.058;2023-03-01T09:09:31;19.10;;;14.05;;
51560;SDS011;37654;51.262;17.058;2023-03-01T09:11:56;16.63;;;12.77;;
51560;SDS011;37654;51.262;17.058;2023-03-01T09:14:22;16.58;;;12.65;;
51560;SDS011;37654;51.262;17.058;2023-03-01T09:16:47;18.03;;;13.13;;
51560;SDS011;37654;51.262;17.058;2023-03-01T09:19:13;15.05;;;11.35;;
51560;SDS011;37654;51.262;17.058;2023-03-01T09:21:38;15.02;;;11.85;;
51560;SDS011;37654;51.262;17.058;2023-03-01T09:24:03;17.60;;;14.00;;
51560;SDS011;37654;51.262;17.058;2023-03-01T09:26:29;21.02;;;14.82;;
51560;SDS011;37654;51.262;17.058;2023-03-01T09:28:55;16.40;;;13.65;;
51560;SDS011;37654;51.262;17.058;2023-03-01T09:31:21;18.45;;;13.50;;
51560;SDS011;37654;51.262;17.058;2023-03-01T09:33:47;18.92;;;14.15;;
51560;SDS011;37654;51.262;17.058;2023-03-01T09:36:18;20.20;;;14.50;;
51560;SDS011;37654;51.262;17.058;2023-03-01T09:38:43;18.35;;;14.73;;
51560;SDS011;37654;51.262;17.058;2023-03-01T09:41:10;19.92;;;14.27;;
51560;SDS011;37654;51.262;17.058;2023-03-01T09:43:46;20.10;;;15.02;;
51560;SDS011;37654;51.262;17.058;2023-03-01T09:46:13;18.88;;;14.55;;
51560;SDS011;37654;51.262;17.058;2023-03-01T09:48:42;18.25;;;14.50;;
51560;SDS011;37654;51.262;17.058;2023-03-01T09:51:09;18.40;;;14.18;;
51560;SDS011;37654;51.262;17.058;2023-03-01T09:53:37;18.83;;;15.30;;
51560;SDS011;37654;51.262;17.058;2023-03-01T09:58:54;15.70;;;11.52;;
51560;SDS011;37654;51.262;17.058;2023-03-01T10:06:21;14.43;;;11.57;;
51560;SDS011;37654;51.262;17.058;2023-03-01T10:08:54;14.50;;;11.85;;
51560;SDS011;37654;51.262;17.058;2023-03-01T10:11:28;13.98;;;10.75;;
51560;SDS011;37654;51.262;17.058;2023-03-01T10:14:00;11.73;;;9.60;;
51560;SDS011;37654;51.262;17.058;2023-03-01T10:19:05;13.98;;;10.98;;
51560;SDS011;37654;51.262;17.058;2023-03-01T10:21:35;14.80;;;10.43;;
51560;SDS011;37654;51.262;17.058;2023-03-01T10:24:36;14.25;;;11.40;;
51560;SDS011;37654;51.262;17.058;2023-03-01T10:26:56;16.15;;;12.07;;
51560;SDS011;37654;51.262;17.058;2023-03-01T10:29:50;15.50;;;12.90;;
51560;SDS011;37654;51.262;17.058;2023-03-01T10:32:10;16.13;;;12.20;;
51560;SDS011;37654;51.262;17.058;2023-03-01T10:34:36;16.92;;;12.60;;
51560;SDS011;37654;51.262;17.058;2023-03-01T10:37:08;17.50;;;12.32;;
51560;SDS011;37654;51.262;17.058;2023-03-01T10:39:34;19.52;;;14.07;;
51560;SDS011;37654;51.262;17.058;2023-03-01T10:47:04;18.45;;;14.35;;
51560;SDS011;37654;51.262;17.058;2023-03-01T10:49:30;19.55;;;16.05;;
51560;SDS011;37654;51.262;17.058;2023-03-01T10:51:56;19.83;;;16.48;;
51560;SDS011;37654;51.262;17.058;2023-03-01T10:54:35;20.05;;;15.68;;
51560;SDS011;37654;51.262;17.058;2023-03-01T10:57:03;19.48;;;14.32;;
51560;SDS011;37654;51.262;17.058;2023-03-01T11:04:33;21.58;;;16.30;;
51560;SDS011;37654;51.262;17.058;2023-03-01T11:06:59;22.57;;;16.47;;
51560;SDS011;37654;51.262;17.058;2023-03-01T11:09:24;19.85;;;16.30;;
51560;SDS011;37654;51.262;17.058;2023-03-01T11:11:53;21.52;;;16.60;;
51560;SDS011;37654;51.262;17.058;2023-03-01T11:14:22;22.50;;;16.83;;
51560;SDS011;37654;51.262;17.058;2023-03-01T11:16:49;23.30;;;16.25;;
51560;SDS011;37654;51.262;17.058;2023-03-01T11:19:22;21.07;;;16.20;;
51560;SDS011;37654;51.262;17.058;2023-03-01T11:24:16;19.10;;;14.65;;
51560;SDS011;37654;51.262;17.058;2023-03-01T11:26:44;17.77;;;13.25;;
51560;SDS011;37654;51.262;17.058;2023-03-01T11:29:13;18.60;;;13.55;;
51560;SDS011;37654;51.262;17.058;2023-03-01T11:31:40;19.70;;;14.55;;
51560;SDS011;37654;51.262;17.058;2023-03-01T11:38:56;18.73;;;12.03;;
51560;SDS011;37654;51.262;17.058;2023-03-01T11:41:31;18.35;;;11.18;;
51560;SDS011;37654;51.262;17.058;2023-03-01T11:51:48;20.35;;;13.23;;
51560;SDS011;37654;51.262;17.058;2023-03-01T11:54:33;17.38;;;11.63;;
51560;SDS011;37654;51.262;17.058;2023-03-01T11:59:49;18.15;;;12.60;;
51560;SDS011;37654;51.262;17.058;2023-03-01T12:12:48;17.25;;;12.60;;
51560;SDS011;37654;51.262;17.058;2023-03-01T12:18:34;19.83;;;12.52;;
51560;SDS011;37654;51.262;17.058;2023-03-01T12:25:58;19.45;;;12.05;;
51560;SDS011;37654;51.262;17.058;2023-03-01T12:36:10;23.95;;;15.65;;
51560;SDS011;37654;51.262;17.058;2023-03-01T12:41:15;24.27;;;14.55;;
51560;SDS011;37654;51.262;17.058;2023-03-01T12:51:38;26.45;;;14.32;;
51560;SDS011;37654;51.262;17.058;2023-03-01T12:54:12;24.15;;;14.55;;
51560;SDS011;37654;51.262;17.058;2023-03-01T12:56:39;24.35;;;13.52;;
51560;SDS011;37654;51.262;17.058;2023-03-01T13:06:39;26.05;;;15.13;;
51560;SDS011;37654;51.262;17.058;2023-03-01T13:11:42;24.15;;;15.27;;
51560;SDS011;37654;51.262;17.058;2023-03-01T13:16:50;24.92;;;13.85;;
51560;SDS011;37654;51.262;17.058;2023-03-01T13:19:19;27.05;;;15.55;;
51560;SDS011;37654;51.262;17.058;2023-03-01T13:21:46;29.40;;;16.00;;
51560;SDS011;37654;51.262;17.058;2023-03-01T13:29:30;30.30;;;16.10;;
51560;SDS011;37654;51.262;17.058;2023-03-01T13:32:17;28.50;;;16.02;;
51560;SDS011;37654;51.262;17.058;2023-03-01T13:34:44;26.13;;;15.68;;
51560;SDS011;37654;51.262;17.058;2023-03-01T13:37:13;27.60;;;17.48;;
51560;SDS011;37654;51.262;17.058;2023-03-01T13:39:43;28.23;;;16.60;;
51560;SDS011;37654;51.262;17.058;2023-03-01T13:44:47;30.67;;;16.42;;
51560;SDS011;37654;51.262;17.058;2023-03-01T13:47:17;23.05;;;14.88;;
51560;SDS011;37654;51.262;17.058;2023-03-01T13:49:46;25.83;;;15.70;;
51560;SDS011;37654;51.262;17.058;2023-03-01T13:54:46;29.05;;;16.70;;
51560;SDS011;37654;51.262;17.058;2023-03-01T13:57:12;32.03;;;17.73;;
51560;SDS011;37654;51.262;17.058;2023-03-01T13:59:46;30.15;;;16.40;;
51560;SDS011;37654;51.262;17.058;2023-03-01T14:02:11;30.13;;;16.08;;
51560;SDS011;37654;51.262;17.058;2023-03-01T14:04:37;26.55;;;15.65;;
51560;SDS011;37654;51.262;17.058;2023-03-01T14:09:35;31.00;;;18.02;;
51560;SDS011;37654;51.262;17.058;2023-03-01T14:14:42;27.65;;;16.02;;
51560;SDS011;37654;51.262;17.058;2023-03-01T14:19:48;28.48;;;16.67;;
51560;SDS011;37654;51.262;17.058;2023-03-01T14:22:26;24.02;;;14.68;;
51560;SDS011;37654;51.262;17.058;2023-03-01T14:24:58;28.92;;;16.45;;
51560;SDS011;37654;51.262;17.058;2023-03-01T14:27:35;25.25;;;14.85;;
51560;SDS011;37654;51.262;17.058;2023-03-01T14:30:10;27.00;;;15.43;;
51560;SDS011;37654;51.262;17.058;2023-03-01T14:32:37;30.02;;;16.35;;
51560;SDS011;37654;51.262;17.058;2023-03-01T14:35:03;27.63;;;16.42;;
51560;SDS011;37654;51.262;17.058;2023-03-01T14:37:32;28.08;;;15.77;;
51560;SDS011;37654;51.262;17.058;2023-03-01T14:39:59;30.08;;;16.70;;
51560;SDS011;37654;51.262;17.058;2023-03-01T14:42:27;28.50;;;16.42;;
51560;SDS011;37654;51.262;17.058;2023-03-01T14:44:53;25.08;;;15.90;;
51560;SDS011;37654;51.262;17.058;2023-03-01T14:47:23;27.75;;;16.30;;
51560;SDS011;37654;51.262;17.058;2023-03-01T14:49:51;28.60;;;16.80;;
51560;SDS011;37654;51.262;17.058;2023-03-01T14:52:22;27.50;;;14.77;;
51560;SDS011;37654;51.262;17.058;2023-03-01T14:54:48;28.85;;;16.25;;
51560;SDS011;37654;51.262;17.058;2023-03-01T14:57:15;28.55;;;16.05;;
51560;SDS011;37654;51.262;17.058;2023-03-01T14:59:41;30.75;;;17.05;;
51560;SDS011;37654;51.262;17.058;2023-03-01T15:02:15;29.23;;;16.17;;
51560;SDS011;37654;51.262;17.058;2023-03-01T15:04:42;30.25;;;16.02;;
51560;SDS011;37654;51.262;17.058;2023-03-01T15:07:09;34.65;;;18.58;;
51560;SDS011;37654;51.262;17.058;2023-03-01T15:09:36;35.47;;;17.90;;
51560;SDS011;37654;51.262;17.058;2023-03-01T15:12:23;30.77;;;16.17;;
51560;SDS011;37654;51.262;17.058;2023-03-01T15:14:47;31.65;;;17.33;;
51560;SDS011;37654;51.262;17.058;2023-03-01T15:17:35;26.98;;;15.55;;
51560;SDS011;37654;51.262;17.058;2023-03-01T15:20:00;36.03;;;17.48;;
51560;SDS011;37654;51.262;17.058;2023-03-01T15:22:26;30.23;;;16.67;;
51560;SDS011;37654;51.262;17.058;2023-03-01T15:24:52;30.98;;;17.13;;
51560;SDS011;37654;51.262;17.058;2023-03-01T15:27:22;33.28;;;18.05;;
51560;SDS011;37654;51.262;17.058;2023-03-01T15:30:00;29.98;;;16.23;;
51560;SDS011;37654;51.262;17.058;2023-03-01T15:32:31;34.88;;;18.50;;
51560;SDS011;37654;51.262;17.058;2023-03-01T15:34:57;35.70;;;19.83;;
51560;SDS011;37654;51.262;17.058;2023-03-01T15:37:38;35.03;;;19.13;;
51560;SDS011;37654;51.262;17.058;2023-03-01T15:40:16;31.00;;;18.67;;
51560;SDS011;37654;51.262;17.058;2023-03-01T15:42:42;33.58;;;18.30;;
51560;SDS011;37654;51.262;17.058;2023-03-01T15:47:33;33.25;;;18.73;;
51560;SDS011;37654;51.262;17.058;2023-03-01T15:49:59;26.63;;;16.23;;
51560;SDS011;37654;51.262;17.058;2023-03-01T15:52:29;32.58;;;18.60;;
51560;SDS011;37654;51.262;17.058;2023-03-01T15:55:00;35.72;;;19.45;;
51560;SDS011;37654;51.262;17.058;2023-03-01T15:57:26;28.75;;;17.42;;
51560;SDS011;37654;51.262;17.058;2023-03-01T15:59:51;33.83;;;17.63;;
51560;SDS011;37654;51.262;17.058;2023-03-01T16:02:17;28.50;;;16.98;;
51560;SDS011;37654;51.262;17.058;2023-03-01T16:04:42;31.40;;;17.13;;
51560;SDS011;37654;51.262;17.058;2023-03-01T16:07:08;30.95;;;17.65;;
51560;SDS011;37654;51.262;17.058;2023-03-01T16:09:34;31.60;;;16.95;;
51560;SDS011;37654;51.262;17.058;2023-03-01T16:12:00;32.72;;;16.25;;